createdAt,value
2018-09-14T00:00:38.635Z,71.20
2018-09-14T00:01:42.646Z,71.20
2018-09-14T00:02:46.891Z,71.20
2018-09-14T00:03:50.979Z,71.20
2018-09-14T00:04:55.006Z,71.30
2018-09-14T00:05:59.046Z,71.40
2018-09-14T00:07:03.066Z,71.40
2018-09-14T00:08:07.165Z,71.40
2018-09-14T00:09:12.706Z,71.40
2018-09-14T00:10:16.770Z,71.40
2018-09-14T00:11:20.767Z,71.60
2018-09-14T00:12:24.899Z,71.50
2018-09-14T00:13:28.918Z,71.60
2018-09-14T00:14:33.014Z,71.70
2018-09-14T00:15:37.195Z,71.70
2018-09-14T00:16:41.233Z,71.90
2018-09-14T00:17:45.221Z,71.90
2018-09-14T00:18:49.217Z,72.00
2018-09-14T00:19:53.277Z,72.00
2018-09-14T00:20:57.465Z,72.00
2018-09-14T00:22:01.489Z,72.00
2018-09-14T00:23:05.596Z,72.90
2018-09-14T00:24:09.567Z,72.40
2018-09-14T00:25:13.567Z,72.50
2018-09-14T00:26:17.584Z,72.40
2018-09-14T00:27:21.619Z,72.30
2018-09-14T00:28:25.632Z,72.40
2018-09-14T00:29:29.877Z,72.40
2018-09-14T00:30:33.883Z,72.40
2018-09-14T00:31:37.901Z,72.60
2018-09-14T00:32:41.958Z,72.50
2018-09-14T00:33:46.017Z,72.60
2018-09-14T00:34:50.011Z,72.70
2018-09-14T00:35:54.170Z,72.90
2018-09-14T00:36:58.178Z,72.90
2018-09-14T00:38:02.225Z,73.00
2018-09-14T00:39:08.125Z,72.90
2018-09-14T00:40:12.146Z,72.90
2018-09-14T00:41:16.246Z,72.90
2018-09-14T00:42:20.254Z,72.90
2018-09-14T00:43:31.034Z,72.60
2018-09-14T00:44:35.037Z,72.80
2018-09-14T00:45:39.053Z,72.90
2018-09-14T00:46:43.108Z,72.90
2018-09-14T00:47:47.110Z,72.70
2018-09-14T00:48:51.127Z,72.70
2018-09-14T00:49:55.329Z,72.90
2018-09-14T00:50:59.355Z,72.90
2018-09-14T00:52:03.358Z,72.80
2018-09-14T00:53:07.402Z,72.70
2018-09-14T00:54:11.414Z,73.00
2018-09-14T00:55:15.411Z,72.90
2018-09-14T00:56:19.425Z,72.70
2018-09-14T00:57:23.450Z,73.00
2018-09-14T00:58:27.467Z,73.20
2018-09-14T00:59:31.607Z,73.30
2018-09-14T01:00:35.638Z,73.50
2018-09-14T01:01:39.669Z,73.60
2018-09-14T01:02:43.691Z,73.60
2018-09-14T01:03:47.807Z,73.60
2018-09-14T01:04:51.762Z,73.70
2018-09-14T01:05:55.803Z,73.70
2018-09-14T01:06:59.827Z,74.00
2018-09-14T01:08:03.850Z,74.00
2018-09-14T01:09:13.086Z,74.30
2018-09-14T01:10:17.130Z,75.10
2018-09-14T01:11:21.138Z,74.40
2018-09-14T01:12:25.175Z,74.30
2018-09-14T01:13:29.182Z,74.60
2018-09-14T01:14:33.244Z,74.70
2018-09-14T01:15:37.249Z,74.60
2018-09-14T01:16:41.462Z,74.50
2018-09-14T01:17:45.495Z,74.60
2018-09-14T01:18:49.497Z,74.70
2018-09-14T01:19:53.587Z,75.00
2018-09-14T01:20:57.554Z,75.10
2018-09-14T01:22:01.578Z,75.00
2018-09-14T01:23:05.642Z,75.10
2018-09-14T01:24:09.757Z,75.20
2018-09-14T01:25:13.772Z,75.40
2018-09-14T01:26:17.836Z,75.40
2018-09-14T01:27:21.845Z,75.20
2018-09-14T01:28:26.026Z,75.50
2018-09-14T01:29:30.107Z,75.70
2018-09-14T01:30:34.122Z,75.70
2018-09-14T01:31:38.133Z,76.00
2018-09-14T01:32:42.174Z,76.00
2018-09-14T01:33:46.213Z,75.90
2018-09-14T01:34:50.197Z,75.90
2018-09-14T01:35:59.643Z,75.90
2018-09-14T01:37:03.696Z,76.00
2018-09-14T01:38:07.667Z,76.00
2018-09-14T01:39:12.789Z,76.70
2018-09-14T01:40:16.781Z,75.90
2018-09-14T01:41:20.775Z,76.00
2018-09-14T01:42:24.796Z,76.30
2018-09-14T01:43:28.873Z,77.20
2018-09-14T01:44:32.874Z,76.50
2018-09-14T01:45:36.876Z,77.40
2018-09-14T01:46:40.878Z,76.70
2018-09-14T01:47:44.903Z,76.80
2018-09-14T01:48:48.905Z,76.90
2018-09-14T01:49:52.891Z,77.00
2018-09-14T01:50:56.884Z,77.00
2018-09-14T01:52:01.183Z,76.90
2018-09-14T01:53:05.166Z,77.10
2018-09-14T01:54:09.222Z,77.00
2018-09-14T01:55:13.238Z,77.10
2018-09-14T01:56:17.251Z,77.30
2018-09-14T01:57:21.239Z,77.30
2018-09-14T01:58:25.282Z,77.30
2018-09-14T01:59:29.308Z,77.20
2018-09-14T02:00:33.342Z,77.20
2018-09-14T02:01:37.338Z,77.50
2018-09-14T02:02:41.346Z,78.30
2018-09-14T02:03:45.694Z,78.20
2018-09-14T02:04:50.471Z,77.30
2018-09-14T02:05:54.503Z,77.30
2018-09-14T02:06:58.505Z,77.50
2018-09-14T02:08:02.711Z,77.60
2018-09-14T02:09:08.235Z,77.50
2018-09-14T02:10:16.454Z,77.50
2018-09-14T02:11:20.555Z,77.60
2018-09-14T02:12:24.594Z,77.80
2018-09-14T02:13:28.610Z,77.90
2018-09-14T02:14:32.626Z,77.90
2018-09-14T02:15:36.634Z,77.80
2018-09-14T02:16:40.623Z,77.80
2018-09-14T02:17:44.660Z,78.60
2018-09-14T02:18:48.634Z,77.80
2018-09-14T02:19:52.741Z,77.80
2018-09-14T02:20:56.755Z,77.70
2018-09-14T02:22:00.778Z,77.70
2018-09-14T02:23:04.801Z,77.70
2018-09-14T02:24:08.819Z,77.60
2018-09-14T02:25:12.967Z,77.60
2018-09-14T02:26:16.973Z,77.60
2018-09-14T02:27:21.121Z,77.70
2018-09-14T02:28:25.183Z,77.60
2018-09-14T02:29:29.221Z,77.40
2018-09-14T02:30:33.242Z,78.10
2018-09-14T02:31:37.326Z,77.20
2018-09-14T02:32:41.388Z,77.10
2018-09-14T02:33:45.378Z,77.20
2018-09-14T02:34:49.379Z,77.10
2018-09-14T02:35:53.456Z,77.30
2018-09-14T02:36:58.007Z,77.30
2018-09-14T02:38:02.051Z,77.20
2018-09-14T02:39:07.339Z,77.10
2018-09-14T02:40:11.363Z,77.20
2018-09-14T02:41:15.402Z,77.10
2018-09-14T02:42:19.425Z,76.30
2018-09-14T02:43:23.482Z,77.10
2018-09-14T02:44:29.650Z,77.00
2018-09-14T02:45:33.656Z,76.80
2018-09-14T02:46:37.674Z,77.00
2018-09-14T02:47:41.663Z,77.10
2018-09-14T02:48:45.670Z,77.30
2018-09-14T02:49:49.692Z,77.10
2018-09-14T02:50:53.734Z,77.30
2018-09-14T02:51:57.746Z,77.20
2018-09-14T02:53:01.763Z,77.40
2018-09-14T02:54:05.799Z,77.10
2018-09-14T02:55:09.890Z,77.20
2018-09-14T02:56:13.899Z,77.30
2018-09-14T02:57:17.905Z,77.40
2018-09-14T02:58:21.982Z,77.40
2018-09-14T02:59:26.014Z,77.40
2018-09-14T03:00:30.087Z,77.50
2018-09-14T03:01:34.119Z,77.50
2018-09-14T03:02:38.159Z,77.50
2018-09-14T03:03:42.247Z,77.40
2018-09-14T03:04:46.291Z,77.80
2018-09-14T03:05:50.304Z,77.90
2018-09-14T03:06:54.322Z,77.70
2018-09-14T03:07:58.335Z,78.50
2018-09-14T03:09:02.343Z,77.70
2018-09-14T03:10:06.449Z,77.80
2018-09-14T03:11:10.509Z,78.10
2018-09-14T03:12:14.515Z,78.20
2018-09-14T03:13:18.525Z,78.20
2018-09-14T03:14:22.573Z,78.30
2018-09-14T03:15:26.568Z,78.20
2018-09-14T03:16:30.591Z,78.40
2018-09-14T03:17:34.629Z,78.50
2018-09-14T03:18:38.671Z,78.50
2018-09-14T03:19:42.770Z,78.50
2018-09-14T03:20:46.788Z,78.70
2018-09-14T03:21:51.198Z,78.70
2018-09-14T03:22:55.324Z,78.80
2018-09-14T03:23:59.530Z,78.70
2018-09-14T03:25:03.799Z,78.90
2018-09-14T03:26:07.915Z,79.00
2018-09-14T03:27:12.040Z,78.80
2018-09-14T03:28:16.194Z,79.00
2018-09-14T03:29:20.281Z,79.00
2018-09-14T03:30:24.312Z,79.10
2018-09-14T03:31:28.360Z,79.20
2018-09-14T03:32:32.461Z,79.40
2018-09-14T03:33:36.536Z,79.20
2018-09-14T03:34:40.672Z,79.10
2018-09-14T03:35:44.806Z,79.00
2018-09-14T03:36:49.080Z,78.70
2018-09-14T03:37:53.248Z,78.70
2018-09-14T03:38:57.347Z,78.50
2018-09-14T03:40:01.466Z,78.50
2018-09-14T03:41:05.704Z,78.70
2018-09-14T03:42:09.802Z,78.50
2018-09-14T03:43:13.906Z,78.40
2018-09-14T03:44:17.983Z,78.40
2018-09-14T03:45:22.206Z,78.50
2018-09-14T03:46:26.301Z,78.50
2018-09-14T03:47:30.407Z,78.50
2018-09-14T03:48:34.597Z,78.50
2018-09-14T03:49:38.684Z,78.50
2018-09-14T03:50:42.752Z,78.60
2018-09-14T03:51:46.978Z,78.70
2018-09-14T03:52:51.059Z,78.70
2018-09-14T03:53:55.254Z,78.70
2018-09-14T03:54:59.325Z,78.90
2018-09-14T03:56:03.435Z,78.80
2018-09-14T03:57:07.593Z,78.90
2018-09-14T03:58:11.710Z,79.00
2018-09-14T03:59:15.976Z,78.90
2018-09-14T04:00:20.357Z,78.80
2018-09-14T04:01:24.699Z,78.80
2018-09-14T04:02:28.789Z,79.00
2018-09-14T04:03:32.942Z,79.00
2018-09-14T04:04:37.369Z,79.20
2018-09-14T04:05:41.501Z,79.00
2018-09-14T04:06:45.595Z,79.00
2018-09-14T04:07:49.665Z,79.00
2018-09-14T04:08:53.719Z,79.00
2018-09-14T04:09:57.833Z,78.90
2018-09-14T04:11:01.974Z,78.70
2018-09-14T04:12:06.171Z,78.80
2018-09-14T04:13:10.228Z,78.80
2018-09-14T04:14:14.297Z,78.70
2018-09-14T04:15:18.460Z,78.70
2018-09-14T04:16:22.598Z,79.10
2018-09-14T04:17:26.815Z,78.90
2018-09-14T04:18:30.983Z,78.90
2018-09-14T04:19:35.073Z,78.90
2018-09-14T04:20:39.215Z,79.00
2018-09-14T04:21:43.352Z,78.80
2018-09-14T04:22:47.423Z,79.20
2018-09-14T04:23:51.490Z,78.90
2018-09-14T04:24:55.635Z,79.00
2018-09-14T04:25:59.730Z,78.90
2018-09-14T04:27:03.828Z,78.90
2018-09-14T04:28:08.044Z,78.90
2018-09-14T04:29:12.172Z,78.90
2018-09-14T04:30:16.326Z,78.90
2018-09-14T04:31:20.406Z,79.20
2018-09-14T04:32:24.507Z,79.20
2018-09-14T04:33:28.855Z,79.40
2018-09-14T04:34:32.966Z,79.20
2018-09-14T04:35:37.076Z,79.10
2018-09-14T04:36:41.142Z,79.10
2018-09-14T04:37:45.239Z,79.10
2018-09-14T04:38:49.308Z,79.10
2018-09-14T04:39:53.502Z,79.10
2018-09-14T04:40:57.676Z,79.00
2018-09-14T04:42:01.796Z,79.00
2018-09-14T04:43:05.937Z,79.10
2018-09-14T04:44:10.073Z,79.10
2018-09-14T04:45:14.147Z,79.10
2018-09-14T04:46:18.265Z,78.90
2018-09-14T04:47:22.384Z,79.10
2018-09-14T04:48:26.513Z,79.00
2018-09-14T04:49:30.629Z,79.00
2018-09-14T04:50:34.798Z,79.20
2018-09-14T04:51:38.978Z,79.40
2018-09-14T04:52:43.036Z,79.20
2018-09-14T04:53:47.125Z,79.10
2018-09-14T04:54:51.326Z,79.30
2018-09-14T04:55:55.396Z,79.20
2018-09-14T04:56:59.555Z,79.10
2018-09-14T04:58:03.751Z,79.10
2018-09-14T04:59:08.062Z,79.10
2018-09-14T05:00:12.272Z,79.30
2018-09-14T05:01:16.577Z,79.30
2018-09-14T05:02:20.673Z,79.20
2018-09-14T05:03:24.916Z,79.10
2018-09-14T05:04:29.051Z,79.40
2018-09-14T05:05:33.133Z,79.00
2018-09-14T05:06:37.235Z,79.00
2018-09-14T05:07:41.327Z,79.10
2018-09-14T05:08:45.525Z,79.00
2018-09-14T05:09:49.568Z,79.20
2018-09-14T05:10:53.778Z,79.20
2018-09-14T05:11:57.829Z,79.20
2018-09-14T05:13:01.983Z,79.50
2018-09-14T05:14:06.087Z,80.10
2018-09-14T05:15:10.285Z,79.20
2018-09-14T05:16:14.341Z,79.20
2018-09-14T05:17:18.647Z,79.30
2018-09-14T05:18:22.901Z,79.20
2018-09-14T05:19:27.000Z,79.20
2018-09-14T05:20:31.408Z,79.20
2018-09-14T05:21:35.540Z,79.00
2018-09-14T05:22:39.622Z,79.10
2018-09-14T05:23:43.672Z,79.10
2018-09-14T05:24:47.744Z,79.10
2018-09-14T05:25:51.856Z,79.20
2018-09-14T05:26:55.920Z,79.80
2018-09-14T05:27:59.999Z,78.90
2018-09-14T05:29:04.119Z,79.00
2018-09-14T05:30:08.309Z,78.90
2018-09-14T05:31:12.546Z,78.90
2018-09-14T05:32:16.716Z,78.90
2018-09-14T05:33:21.717Z,78.80
2018-09-14T05:34:25.820Z,78.70
2018-09-14T05:35:29.901Z,78.80
2018-09-14T05:36:34.122Z,78.80
2018-09-14T05:37:38.246Z,78.70
2018-09-14T05:38:42.350Z,78.70
2018-09-14T05:39:46.811Z,78.80
2018-09-14T05:40:50.989Z,78.60
2018-09-14T05:41:55.343Z,78.40
2018-09-14T05:42:59.422Z,78.40
2018-09-14T05:44:03.639Z,78.80
2018-09-14T05:45:07.788Z,78.60
2018-09-14T05:46:11.857Z,78.60
2018-09-14T05:47:15.974Z,78.50
2018-09-14T05:48:20.014Z,78.50
2018-09-14T05:49:24.074Z,78.80
2018-09-14T05:50:28.179Z,78.50
2018-09-14T05:51:32.258Z,79.00
2018-09-14T05:52:36.424Z,78.40
2018-09-14T05:53:40.512Z,78.50
2018-09-14T05:54:44.563Z,78.80
2018-09-14T05:55:48.653Z,78.60
2018-09-14T05:56:52.868Z,79.00
2018-09-14T05:57:59.063Z,79.00
2018-09-14T05:59:03.170Z,78.80
2018-09-14T06:00:07.337Z,78.70
2018-09-14T06:01:11.458Z,78.70
2018-09-14T06:02:15.694Z,78.80
2018-09-14T06:03:19.888Z,78.80
2018-09-14T06:04:24.016Z,78.70
2018-09-14T06:05:28.108Z,78.80
2018-09-14T06:06:32.307Z,78.90
2018-09-14T06:07:36.571Z,78.80
2018-09-14T06:08:40.830Z,79.00
2018-09-14T06:09:44.954Z,79.00
2018-09-14T06:10:49.089Z,79.20
2018-09-14T06:11:53.137Z,79.20
2018-09-14T06:12:57.224Z,79.10
2018-09-14T06:14:01.287Z,79.00
2018-09-14T06:15:05.466Z,79.00
2018-09-14T06:16:09.556Z,78.80
2018-09-14T06:17:13.774Z,79.20
2018-09-14T06:18:17.962Z,79.00
2018-09-14T06:19:22.058Z,78.90
2018-09-14T06:20:26.173Z,78.80
2018-09-14T06:21:30.364Z,79.60
2018-09-14T06:22:34.662Z,79.00
2018-09-14T06:23:38.738Z,79.20
2018-09-14T06:24:43.024Z,79.10
2018-09-14T06:25:47.207Z,79.10
2018-09-14T06:26:51.322Z,78.80
2018-09-14T06:27:55.464Z,79.10
2018-09-14T06:28:59.644Z,78.90
2018-09-14T06:30:03.888Z,78.70
2018-09-14T06:31:08.024Z,78.70
2018-09-14T06:32:12.232Z,79.00
2018-09-14T06:33:16.332Z,78.90
2018-09-14T06:34:20.624Z,78.80
2018-09-14T06:35:24.758Z,78.50
2018-09-14T06:36:28.900Z,78.50
2018-09-14T06:37:32.975Z,78.80
2018-09-14T06:38:37.135Z,78.80
2018-09-14T06:39:41.288Z,78.70
2018-09-14T06:40:45.532Z,78.60
2018-09-14T06:41:49.622Z,78.70
2018-09-14T06:42:53.758Z,78.70
2018-09-14T06:43:57.904Z,78.60
2018-09-14T06:45:02.069Z,78.50
2018-09-14T06:46:06.193Z,78.50
2018-09-14T06:47:10.324Z,78.40
2018-09-14T06:48:14.416Z,78.40
2018-09-14T06:49:18.578Z,78.40
2018-09-14T06:50:22.756Z,78.20
2018-09-14T06:51:27.196Z,78.40
2018-09-14T06:52:31.316Z,78.50
2018-09-14T06:53:35.500Z,78.70
2018-09-14T06:54:39.603Z,78.80
2018-09-14T06:55:43.723Z,79.00
2018-09-14T06:56:47.859Z,79.10
2018-09-14T06:57:51.932Z,79.20
2018-09-14T06:58:56.060Z,79.20
2018-09-14T07:00:00.198Z,79.40
2018-09-14T07:01:04.253Z,79.40
2018-09-14T07:02:08.537Z,79.50
2018-09-14T07:03:12.588Z,79.60
2018-09-14T07:04:16.831Z,79.50
2018-09-14T07:05:20.974Z,79.50
2018-09-14T07:06:25.509Z,79.80
2018-09-14T07:07:29.640Z,79.70
2018-09-14T07:08:33.857Z,79.70
2018-09-14T07:09:38.007Z,79.80
2018-09-14T07:10:42.500Z,79.80
2018-09-14T07:11:46.560Z,79.60
2018-09-14T07:12:50.630Z,79.70
2018-09-14T07:13:54.882Z,79.70
2018-09-14T07:14:59.039Z,79.50
2018-09-14T07:16:05.036Z,79.60
2018-09-14T07:17:09.126Z,79.30
2018-09-14T07:18:13.261Z,79.20
2018-09-14T07:19:17.350Z,79.10
2018-09-14T07:20:21.580Z,79.30
2018-09-14T07:21:25.673Z,79.20
2018-09-14T07:22:29.737Z,79.00
2018-09-14T07:23:33.897Z,78.80
2018-09-14T07:24:38.191Z,79.10
2018-09-14T07:25:42.340Z,79.20
2018-09-14T07:26:46.586Z,79.40
2018-09-14T07:27:50.984Z,79.10
2018-09-14T07:28:55.232Z,79.10
2018-09-14T07:29:59.403Z,79.10
2018-09-14T07:31:03.402Z,79.20
2018-09-14T07:32:07.720Z,79.20
2018-09-14T07:33:11.890Z,79.20
2018-09-14T07:34:16.039Z,79.20
2018-09-14T07:35:20.210Z,79.20
2018-09-14T07:36:24.552Z,79.10
2018-09-14T07:37:28.595Z,79.40
2018-09-14T07:38:32.733Z,79.30
2018-09-14T07:39:37.414Z,79.50
2018-09-14T07:40:41.762Z,79.40
2018-09-14T07:41:45.890Z,79.50
2018-09-14T07:42:49.980Z,79.30
2018-09-14T07:43:54.105Z,79.20
2018-09-14T07:44:58.308Z,79.30
2018-09-14T07:46:02.345Z,79.50
2018-09-14T07:47:06.537Z,80.30
2018-09-14T07:48:10.807Z,79.50
2018-09-14T07:49:14.967Z,79.50
2018-09-14T07:50:19.064Z,79.50
2018-09-14T07:51:23.144Z,79.60
2018-09-14T07:52:27.376Z,79.30
2018-09-14T07:53:31.481Z,79.50
2018-09-14T07:54:35.615Z,79.60
2018-09-14T07:55:39.752Z,79.50
2018-09-14T07:56:44.089Z,79.30
2018-09-14T07:57:48.209Z,79.30
2018-09-14T07:58:52.482Z,78.90
2018-09-14T07:59:56.614Z,78.90
2018-09-14T08:01:00.971Z,78.60
2018-09-14T08:02:05.082Z,78.60
2018-09-14T08:03:09.169Z,78.70
2018-09-14T08:04:13.305Z,78.70
2018-09-14T08:05:18.278Z,78.90
2018-09-14T08:06:22.608Z,78.70
2018-09-14T08:07:26.765Z,78.60
2018-09-14T08:08:31.137Z,78.40
2018-09-14T08:09:35.315Z,78.30
2018-09-14T08:10:39.374Z,78.20
2018-09-14T08:11:43.700Z,78.00
2018-09-14T08:12:47.994Z,77.90
2018-09-14T08:13:52.104Z,77.90
2018-09-14T08:14:56.224Z,78.00
2018-09-14T08:16:00.296Z,77.90
2018-09-14T08:17:04.419Z,78.00
2018-09-14T08:18:08.576Z,78.00
2018-09-14T08:19:12.813Z,77.90
2018-09-14T08:20:17.080Z,78.00
2018-09-14T08:21:21.622Z,77.90
2018-09-14T08:22:25.746Z,78.00
2018-09-14T08:23:29.867Z,78.00
2018-09-14T08:24:34.383Z,78.10
2018-09-14T08:25:38.687Z,77.90
2018-09-14T08:26:43.276Z,78.60
2018-09-14T08:27:47.399Z,77.90
2018-09-14T08:28:51.640Z,77.90
2018-09-14T08:29:55.711Z,77.90
2018-09-14T08:31:06.686Z,77.90
2018-09-14T08:32:10.771Z,77.90
2018-09-14T08:33:14.908Z,77.90
2018-09-14T08:34:18.982Z,77.90
2018-09-14T08:35:23.298Z,78.10
2018-09-14T08:36:27.640Z,78.00
2018-09-14T08:37:31.726Z,78.10
2018-09-14T08:38:35.888Z,78.10
2018-09-14T08:39:40.033Z,78.30
2018-09-14T08:40:44.155Z,78.20
2018-09-14T08:41:48.394Z,78.00
2018-09-14T08:42:52.576Z,77.80
2018-09-14T08:43:56.780Z,77.90
2018-09-14T08:45:00.884Z,78.00
2018-09-14T08:46:05.006Z,78.00
2018-09-14T08:47:09.813Z,78.20
2018-09-14T08:48:14.001Z,78.60
2018-09-14T08:49:18.436Z,78.50
2018-09-14T08:50:22.797Z,78.50
2018-09-14T08:51:27.703Z,78.60
2018-09-14T08:52:32.047Z,78.70
2018-09-14T08:53:36.183Z,78.80
2018-09-14T08:54:40.376Z,78.80
2018-09-14T08:55:44.445Z,78.20
2018-09-14T08:56:48.758Z,78.00
2018-09-14T08:57:52.860Z,78.00
2018-09-14T08:58:57.210Z,78.10
2018-09-14T09:00:01.818Z,78.10
2018-09-14T09:01:06.599Z,78.40
2018-09-14T09:02:10.722Z,78.40
2018-09-14T09:03:14.948Z,78.30
2018-09-14T09:04:19.107Z,78.00
2018-09-14T09:05:24.151Z,78.00
2018-09-14T09:06:28.307Z,77.90
2018-09-14T09:07:32.462Z,77.80
2018-09-14T09:08:36.623Z,77.90
2018-09-14T09:09:40.782Z,77.70
2018-09-14T09:10:44.948Z,77.40
2018-09-14T09:11:49.113Z,77.00
2018-09-14T09:12:53.214Z,76.70
2018-09-14T09:13:57.464Z,76.50
2018-09-14T09:15:01.549Z,76.50
2018-09-14T09:16:05.700Z,76.30
2018-09-14T09:17:09.848Z,76.00
2018-09-14T09:18:13.920Z,75.90
2018-09-14T09:19:18.191Z,75.10
2018-09-14T09:20:22.358Z,74.70
2018-09-14T09:21:26.549Z,74.10
2018-09-14T09:22:30.690Z,73.90
2018-09-14T09:23:34.865Z,73.40
2018-09-14T09:24:39.012Z,73.00
2018-09-14T09:25:43.037Z,72.90
2018-09-14T09:26:47.130Z,72.70
2018-09-14T09:27:51.229Z,72.40
2018-09-14T09:28:55.371Z,72.60
2018-09-14T09:29:59.540Z,73.00
2018-09-14T09:31:03.631Z,72.00
2018-09-14T09:32:07.803Z,72.10
2018-09-14T09:33:12.017Z,72.30
2018-09-14T09:34:16.249Z,72.70
2018-09-14T09:35:20.438Z,72.50
2018-09-14T09:36:24.668Z,72.70
2018-09-14T09:37:28.883Z,72.90
2018-09-14T09:38:33.572Z,72.90
2018-09-14T09:39:38.223Z,73.10
2018-09-14T09:40:42.451Z,73.10
2018-09-14T09:41:46.683Z,72.90
2018-09-14T09:42:50.912Z,72.70
2018-09-14T09:43:55.131Z,72.50
2018-09-14T09:44:59.264Z,72.40
2018-09-14T09:46:03.473Z,72.10
2018-09-14T09:47:07.698Z,71.80
2018-09-14T09:48:11.869Z,71.80
2018-09-14T09:49:16.833Z,71.50
2018-09-14T09:50:21.021Z,71.50
2018-09-14T09:51:25.129Z,71.50
2018-09-14T09:52:29.410Z,71.10
2018-09-14T09:53:33.681Z,71.10
2018-09-14T09:54:37.864Z,71.00
2018-09-14T09:55:42.045Z,70.80
2018-09-14T09:56:46.556Z,71.00
2018-09-14T09:57:50.690Z,70.90
2018-09-14T09:58:54.762Z,70.80
2018-09-14T09:59:58.973Z,70.70
2018-09-14T10:01:08.470Z,70.80
2018-09-14T10:02:17.914Z,70.80
2018-09-14T10:03:27.394Z,70.90
2018-09-14T10:04:32.398Z,71.00
2018-09-14T10:05:41.894Z,71.30
2018-09-14T10:06:45.948Z,71.40
2018-09-14T10:07:50.233Z,71.50
2018-09-14T10:08:55.425Z,71.30
2018-09-14T10:09:59.597Z,71.50
2018-09-14T10:11:04.324Z,71.70
2018-09-14T10:12:08.421Z,71.70
2018-09-14T10:13:12.657Z,71.80
2018-09-14T10:14:16.802Z,72.50
2018-09-14T10:15:20.886Z,71.50
2018-09-14T10:16:25.025Z,71.60
2018-09-14T10:17:29.198Z,71.30
2018-09-14T10:18:33.328Z,71.10
2018-09-14T10:19:37.904Z,71.20
2018-09-14T10:20:42.052Z,70.90
2018-09-14T10:21:46.761Z,70.60
2018-09-14T10:22:51.015Z,70.60
2018-09-14T10:23:55.201Z,70.30
2018-09-14T10:24:59.361Z,70.20
2018-09-14T10:26:03.490Z,70.10
2018-09-14T10:27:07.712Z,69.90
2018-09-14T10:28:11.826Z,69.70
2018-09-14T10:29:16.038Z,69.50
2018-09-14T10:30:20.167Z,69.70
2018-09-14T10:31:24.575Z,69.60
2018-09-14T10:32:28.756Z,69.30
2018-09-14T10:33:32.983Z,69.10
2018-09-14T10:34:37.263Z,69.00
2018-09-14T10:35:41.579Z,69.00
2018-09-14T10:36:45.704Z,68.50
2018-09-14T10:37:49.874Z,68.90
2018-09-14T10:38:54.021Z,69.30
2018-09-14T10:39:58.263Z,68.90
2018-09-14T10:41:02.679Z,69.20
2018-09-14T10:42:06.914Z,67.70
2018-09-14T10:43:11.047Z,67.70
2018-09-14T10:44:15.140Z,67.60
2018-09-14T10:45:19.532Z,67.00
2018-09-14T10:46:23.501Z,67.10
2018-09-14T10:47:27.620Z,66.30
2018-09-14T10:48:31.750Z,65.30
2018-09-14T10:49:35.838Z,64.90
2018-09-14T10:50:39.934Z,64.70
2018-09-14T10:51:44.033Z,64.70
2018-09-14T10:52:48.226Z,65.40
2018-09-14T10:53:52.292Z,64.80
2018-09-14T10:54:56.478Z,65.30
2018-09-14T10:56:00.580Z,65.80
2018-09-14T10:57:04.723Z,64.90
2018-09-14T10:58:08.820Z,64.50
2018-09-14T10:59:12.978Z,63.60
2018-09-14T11:00:17.187Z,62.80
2018-09-14T11:01:21.327Z,62.20
2018-09-14T11:02:25.435Z,61.10
2018-09-14T11:03:29.594Z,61.30
2018-09-14T11:04:33.973Z,60.00
2018-09-14T11:05:38.032Z,59.60
2018-09-14T11:06:42.175Z,59.10
2018-09-14T11:07:46.334Z,58.20
2018-09-14T11:08:50.466Z,57.80
2018-09-14T11:09:54.650Z,57.30
2018-09-14T11:10:58.823Z,56.80
2018-09-14T11:12:02.923Z,56.00
2018-09-14T11:13:07.120Z,55.50
2018-09-14T11:14:11.572Z,55.10
2018-09-14T11:15:15.848Z,54.90
2018-09-14T11:16:19.993Z,54.40
2018-09-14T11:17:24.171Z,54.10
2018-09-14T11:18:28.531Z,53.80
2018-09-14T11:19:32.705Z,53.50
2018-09-14T11:20:36.959Z,53.20
2018-09-14T11:21:41.014Z,53.00
2018-09-14T11:22:45.327Z,52.70
2018-09-14T11:23:49.506Z,52.60
2018-09-14T11:24:53.741Z,52.60
2018-09-14T11:25:57.933Z,52.50
2018-09-14T11:27:02.169Z,52.50
2018-09-14T11:28:06.460Z,52.40
2018-09-14T11:29:10.717Z,52.60
2018-09-14T11:30:15.007Z,52.70
2018-09-14T11:31:23.625Z,52.60
2018-09-14T11:32:28.335Z,52.80
2018-09-14T11:33:32.332Z,53.10
2018-09-14T11:34:36.489Z,53.30
2018-09-14T11:35:40.606Z,53.40
2018-09-14T11:36:44.859Z,53.50
2018-09-14T11:37:49.076Z,53.80
2018-09-14T11:38:53.332Z,54.10
2018-09-14T11:39:57.499Z,54.30
2018-09-14T11:41:01.706Z,54.40
2018-09-14T11:42:05.955Z,54.60
2018-09-14T11:43:10.086Z,54.60
2018-09-14T11:44:14.268Z,54.40
2018-09-14T11:45:18.396Z,54.60
2018-09-14T11:46:22.635Z,54.60
2018-09-14T11:47:26.844Z,54.60
2018-09-14T11:48:31.127Z,55.20
2018-09-14T11:49:35.557Z,54.70
2018-09-14T11:50:39.745Z,54.90
2018-09-14T11:51:43.925Z,54.50
2018-09-14T11:52:48.055Z,54.30
2018-09-14T11:53:52.172Z,54.50
2018-09-14T11:54:56.344Z,54.70
2018-09-14T11:56:00.522Z,55.20
2018-09-14T11:57:04.720Z,55.80
2018-09-14T11:58:08.965Z,56.20
2018-09-14T11:59:13.139Z,56.30
2018-09-14T12:00:17.300Z,56.60
2018-09-14T12:01:21.505Z,56.60
2018-09-14T12:02:25.724Z,56.60
2018-09-14T12:03:29.988Z,56.70
2018-09-14T12:04:34.174Z,56.80
2018-09-14T12:05:38.406Z,57.10
2018-09-14T12:06:42.784Z,57.60
2018-09-14T12:07:46.947Z,58.00
2018-09-14T12:08:51.111Z,58.00
2018-09-14T12:09:55.350Z,58.50
2018-09-14T12:10:59.630Z,58.60
2018-09-14T12:12:03.824Z,58.50
2018-09-14T12:13:07.993Z,58.50
2018-09-14T12:14:12.280Z,58.40
2018-09-14T12:15:16.423Z,58.20
2018-09-14T12:16:20.610Z,57.60
2018-09-14T12:17:24.716Z,57.20
2018-09-14T12:18:29.101Z,56.90
2018-09-14T12:19:33.226Z,56.10
2018-09-14T12:20:37.382Z,56.10
2018-09-14T12:21:41.560Z,55.00
2018-09-14T12:22:45.766Z,54.40
2018-09-14T12:23:49.896Z,53.90
2018-09-14T12:24:54.068Z,53.60
2018-09-14T12:25:58.394Z,53.00
2018-09-14T12:27:02.521Z,52.60
2018-09-14T12:28:07.887Z,52.20
2018-09-14T12:29:11.932Z,51.70
2018-09-14T12:30:15.992Z,51.10
2018-09-14T12:31:20.149Z,50.60
2018-09-14T12:33:28.064Z,48.60
2018-09-14T12:34:32.214Z,49.50
2018-09-14T12:35:36.389Z,48.10
2018-09-14T12:36:40.461Z,47.10
2018-09-14T12:37:44.510Z,46.60
2018-09-14T12:38:48.601Z,46.00
2018-09-14T12:39:52.740Z,45.70
2018-09-14T12:40:56.784Z,45.50
2018-09-14T12:43:04.664Z,43.70
2018-09-14T12:44:08.857Z,43.70
2018-09-14T12:45:12.984Z,43.40
2018-09-14T12:46:17.176Z,43.20
2018-09-14T12:47:21.452Z,43.00
2018-09-14T12:48:25.657Z,42.80
2018-09-14T12:49:29.954Z,42.50
2018-09-14T12:50:34.085Z,41.70
2018-09-14T12:51:38.242Z,40.00
2018-09-14T12:52:42.480Z,40.20
2018-09-14T12:53:46.592Z,39.60
2018-09-14T12:54:50.764Z,39.10
2018-09-14T12:55:55.005Z,38.40
2018-09-14T12:56:59.166Z,37.50
2018-09-14T12:58:03.342Z,37.80
2018-09-14T12:59:07.537Z,37.60
2018-09-14T13:00:12.232Z,37.50
2018-09-14T13:01:16.555Z,37.50
2018-09-14T13:02:20.657Z,37.50
2018-09-14T13:03:24.980Z,37.50
2018-09-14T13:04:29.172Z,37.10
2018-09-14T13:05:33.407Z,37.10
2018-09-14T13:06:37.668Z,36.80
2018-09-14T13:07:42.352Z,36.50
2018-09-14T13:08:53.111Z,36.20
2018-09-14T13:09:57.345Z,36.20
2018-09-14T13:11:01.556Z,36.10
2018-09-14T13:12:05.944Z,36.20
2018-09-14T13:13:10.566Z,36.20
2018-09-14T13:14:19.519Z,36.30
2018-09-14T13:15:23.740Z,36.50
2018-09-14T13:16:28.210Z,36.40
2018-09-14T13:17:32.576Z,36.50
2018-09-14T13:18:36.834Z,36.60
2018-09-14T13:19:41.448Z,36.60
2018-09-14T13:20:45.580Z,36.60
2018-09-14T13:21:50.038Z,36.70
2018-09-14T13:22:54.685Z,36.90
2018-09-14T13:23:58.830Z,37.00
2018-09-14T13:25:03.042Z,37.10
2018-09-14T13:26:07.317Z,37.30
2018-09-14T13:27:11.665Z,37.40
2018-09-14T13:28:15.852Z,37.70
2018-09-14T13:29:20.063Z,38.00
2018-09-14T13:30:24.629Z,38.20
2018-09-14T13:31:29.907Z,38.40
2018-09-14T13:32:35.503Z,38.70
2018-09-14T13:33:39.754Z,38.90
2018-09-14T13:34:43.902Z,39.10
2018-09-14T13:35:48.505Z,39.40
2018-09-14T13:36:52.833Z,39.70
2018-09-14T13:37:57.047Z,40.00
2018-09-14T13:39:01.464Z,40.20
2018-09-14T13:40:06.074Z,40.50
2018-09-14T13:41:10.377Z,40.70
2018-09-14T13:42:14.598Z,41.00
2018-09-14T13:43:19.787Z,41.10
2018-09-14T13:44:24.952Z,41.40
2018-09-14T13:45:29.787Z,41.60
2018-09-14T13:46:34.297Z,41.70
2018-09-14T13:47:38.405Z,42.00
2018-09-14T13:48:42.781Z,42.30
2018-09-14T13:49:47.244Z,42.40